Accueil
METAR-TAF:

METAR-TAF

Aéroports :

Egegik, Alaska, États-Unis

latitude: 58-11-07N, longitude: 157-23-08W, altitude: 28 m

Observation

Le bulletin a été fait il y a 12 minutes, à 00:09 UTC
Vent 5 kt de est/nord-est
Température -13°C
Humidité 78%
Pression 1014 hPa
Visibilité: 1.2 km
neige faible, brume

METAR: PAII 230009Z AUTO 07005KT 3/4SM -SN BR VV001 M13/M16 A2993 RMK AO2 P0000 FZRANO

Heure: 15:21 (00:21 UTC)


TAF: absent

Observations et prévisions météorologiques de plus de 4000 aéroports (messages METAR et TAF).

Les stations disponibles sont représentées par des disques jaunes et rouges sur la carte.

Passer la souris dessus pour voir le nom de la station.

Cliquer dessus pour voir les observations et prévisions météorologiques.

Pour changer de carte: cliquez sur les boutons verts avec une croix noire pour zoomer, sur le bouton vert avec un tiret pour effectuer un zoom arrière, ou sur les flèches vertes pour les cartes adjacentes.


METAR-TAF: